Time;durP1;ratioP1;P1;durP2;ratioP2;P2;SDS_P1;SDS_P2;PMS_P1;PMS_P2;Temp;Humidity;BMP_temperature;BMP_pressure;BME280_temperature;BME280_humidity;BME280_pressure;Samples;Min_cycle;Max_cycle;Signal;HPM_P1;HPM_P2
2022/04/23 00:01:34;;;;;;;;;;;14.90;57.20;;;;;;5023457;28;19964;-71
2022/04/23 00:04:01;;;;;;;;;;;14.90;57.20;;;;;;5030269;28;19933;-70
2022/04/23 00:06:27;;;;;;;;;;;14.80;57.00;;;;;;5031174;28;19929;-70
2022/04/23 00:08:54;;;;;;;;;;;14.80;57.10;;;;;;5028765;28;19929;-70
2022/04/23 00:11:21;;;;;;;;;;;14.80;57.10;;;;;;5020511;28;19929;-70
2022/04/23 00:13:47;;;;;;;;;;;14.80;57.20;;;;;;5022156;28;19933;-70
2022/04/23 00:16:15;;;;;;;;;;;14.70;57.40;;;;;;5021394;28;19937;-69
2022/04/23 00:18:42;;;;;;;;;;;14.70;57.40;;;;;;5035334;28;19982;-70
2022/04/23 00:21:08;;;;;;;;;;;14.70;57.40;;;;;;5032119;28;19929;-69
2022/04/23 00:23:36;;;;;;;;;;;14.60;57.40;;;;;;5025604;28;19932;-70
2022/04/23 00:26:02;;;;;;;;;;;14.60;57.30;;;;;;5031160;28;19928;-70
2022/04/23 00:28:29;;;;;;;;;;;15.20;57.70;;;;;;5028061;28;19975;-70
2022/04/23 00:30:55;;;;;;;;;;;14.50;57.50;;;;;;5020849;28;20441;-70
2022/04/23 00:33:23;;;;;;;;;;;14.50;57.60;;;;;;5028084;28;19936;-70
2022/04/23 00:35:50;;;;;;;;;;;14.40;57.60;;;;;;5032910;28;20428;-69
2022/04/23 00:38:17;;;;;;;;;;;14.50;57.70;;;;;;5027807;28;20070;-69
2022/04/23 00:40:44;;;;;;;;;;;14.40;57.70;;;;;;5034957;28;20569;-70
2022/04/23 00:43:14;;;;;;;;;;;14.40;57.80;;;;;;5023896;28;19929;-70
2022/04/23 00:45:41;;;;;;;;;;;14.40;57.90;;;;;;5018769;28;19929;-70
2022/04/23 00:48:07;;;;;;;;;;;14.30;58.00;;;;;;5017282;28;20022;-70
2022/04/23 00:50:35;;;;;;;;;;;14.30;58.10;;;;;;5029032;28;20388;-70
2022/04/23 00:53:04;;;;;;;;;;;14.30;58.10;;;;;;5022351;28;19937;-69
2022/04/23 00:55:32;;;;;;;;;;;14.20;58.70;;;;;;5024219;28;19936;-70
2022/04/23 00:57:59;;;;;;;;;;;14.20;58.20;;;;;;5026050;28;20352;-69
2022/04/23 01:00:26;;;;;;;;;;;14.10;58.20;;;;;;5019853;28;19933;-70
2022/04/23 01:02:54;;;;;;;;;;;14.10;58.30;;;;;;5025578;28;20334;-69
2022/04/23 01:05:23;;;;;;;;;;;14.10;58.40;;;;;;5029252;28;20549;-70
2022/04/23 01:07:52;;;;;;;;;;;14.10;58.50;;;;;;5017757;28;19968;-70
2022/04/23 01:10:19;;;;;;;;;;;14.10;58.60;;;;;;5020547;28;19990;-69
2022/04/23 01:12:46;;;;;;;;;;;14.10;58.70;;;;;;5022413;28;19929;-69
2022/04/23 01:15:14;;;;;;;;;;;14.00;58.70;;;;;;5017829;28;20359;-70
2022/04/23 01:17:41;;;;;;;;;;;14.00;58.90;;;;;;5023558;28;20019;-69
2022/04/23 01:20:10;;;;;;;;;;;14.00;58.90;;;;;;5021556;28;19936;-70
2022/04/23 01:22:37;;;;;;;;;;;13.90;59.50;;;;;;5023532;28;20397;-70
2022/04/23 01:25:04;;;;;;;;;;;13.90;59.00;;;;;;5023926;28;19960;-70
2022/04/23 01:27:31;;;;;;;;;;;13.90;59.00;;;;;;5025135;28;20052;-70
2022/04/23 01:29:58;;;;;;;;;;;13.90;59.10;;;;;;5021098;28;19925;-69
2022/04/23 01:32:24;;;;;;;;;;;13.80;59.20;;;;;;5021949;28;19940;-70
2022/04/23 01:34:51;;;;;;;;;;;13.80;59.30;;;;;;5024713;28;19936;-70
2022/04/23 01:37:19;;;;;;;;;;;13.70;59.30;;;;;;5000533;28;22226;-69
2022/04/23 01:39:47;;;;;;;;;;;13.70;59.40;;;;;;5016530;28;19937;-70
2022/04/23 01:42:13;;;;;;;;;;;13.70;59.50;;;;;;5023615;28;19960;-69
2022/04/23 01:44:40;;;;;;;;;;;13.70;59.50;;;;;;5017644;28;19940;-69
2022/04/23 01:47:07;;;;;;;;;;;14.30;59.90;;;;;;5022046;28;20356;-70
2022/04/23 01:49:33;;;;;;;;;;;13.60;59.60;;;;;;5025119;28;19940;-69
2022/04/23 01:52:00;;;;;;;;;;;13.60;59.70;;;;;;5018423;28;19933;-69
2022/04/23 01:54:28;;;;;;;;;;;13.60;59.70;;;;;;5019377;28;20624;-69
2022/04/23 01:56:57;;;;;;;;;;;13.50;59.70;;;;;;5023276;28;19936;-70
2022/04/23 01:59:24;;;;;;;;;;;14.50;60.40;;;;;;5019734;28;19937;-68
2022/04/23 02:01:50;;;;;;;;;;;13.50;59.90;;;;;;5028341;28;20644;-68
2022/04/23 02:04:17;;;;;;;;;;;13.50;60.00;;;;;;5022842;28;19933;-69
2022/04/23 02:06:43;;;;;;;;;;;13.40;60.00;;;;;;5023978;28;19932;-69
2022/04/23 02:09:10;;;;;;;;;;;13.40;60.10;;;;;;5018294;28;19983;-70
2022/04/23 02:11:38;;;;;;;;;;;13.40;60.30;;;;;;5021085;28;19936;-70
2022/04/23 02:14:05;;;;;;;;;;;13.60;60.70;;;;;;5022222;28;19930;-70
2022/04/23 02:16:32;;;;;;;;;;;13.30;60.40;;;;;;5015230;28;19979;-70
2022/04/23 02:18:59;;;;;;;;;;;13.30;60.60;;;;;;5024439;28;19928;-69
2022/04/23 02:21:25;;;;;;;;;;;13.30;60.70;;;;;;5023349;28;19991;-69
2022/04/23 02:23:53;;;;;;;;;;;13.20;60.70;;;;;;5021889;28;20051;-70
2022/04/23 02:26:20;;;;;;;;;;;13.20;60.90;;;;;;5021618;28;19929;-70
2022/04/23 02:28:48;;;;;;;;;;;13.20;61.10;;;;;;5023028;28;20396;-69
2022/04/23 02:31:14;;;;;;;;;;;13.20;60.60;;;;;;5020071;28;19933;-69
2022/04/23 02:33:41;;;;;;;;;;;13.10;61.20;;;;;;5027288;28;19931;-69
2022/04/23 02:36:08;;;;;;;;;;;13.10;61.30;;;;;;5023039;28;19995;-69
2022/04/23 02:38:34;;;;;;;;;;;13.10;61.40;;;;;;5018501;28;20362;-70
2022/04/23 02:41:01;;;;;;;;;;;13.10;61.60;;;;;;5021240;28;19929;-70
2022/04/23 02:43:27;;;;;;;;;;;13.00;61.70;;;;;;5022844;28;20400;-69
2022/04/23 02:45:55;;;;;;;;;;;13.00;61.80;;;;;;5016798;28;19926;-69
2022/04/23 02:48:21;;;;;;;;;;;13.00;61.90;;;;;;5022226;28;19929;-69
2022/04/23 02:50:48;;;;;;;;;;;12.90;61.40;;;;;;5023746;28;19929;-70
2022/04/23 02:53:16;;;;;;;;;;;12.90;62.00;;;;;;5012696;28;19952;-69
2022/04/23 02:55:42;;;;;;;;;;;12.90;62.10;;;;;;5020486;28;19940;-69
2022/04/23 02:58:10;;;;;;;;;;;12.90;62.30;;;;;;5021080;28;19936;-70
2022/04/23 03:00:38;;;;;;;;;;;12.80;62.30;;;;;;5017038;28;19929;-70
2022/04/23 03:03:07;;;;;;;;;;;12.80;62.30;;;;;;5020892;28;19999;-70
2022/04/23 03:05:33;;;;;;;;;;;12.80;62.50;;;;;;5022941;28;19982;-69
2022/04/23 03:08:00;;;;;;;;;;;12.80;62.60;;;;;;5029090;28;19929;-69
2022/04/23 03:10:28;;;;;;;;;;;12.70;62.60;;;;;;5019994;28;20032;-69
2022/04/23 03:12:55;;;;;;;;;;;12.70;62.80;;;;;;5018667;28;19932;-69
2022/04/23 03:15:23;;;;;;;;;;;12.70;62.70;;;;;;5020318;28;19959;-70
2022/04/23 03:17:50;;;;;;;;;;;12.70;62.90;;;;;;5028839;28;20004;-69
2022/04/23 03:20:18;;;;;;;;;;;12.70;63.00;;;;;;5024682;28;19929;-70
2022/04/23 03:22:45;;;;;;;;;;;12.60;63.10;;;;;;5027116;28;19929;-69
2022/04/23 03:25:12;;;;;;;;;;;12.60;63.20;;;;;;5028464;28;19929;-69
2022/04/23 03:27:39;;;;;;;;;;;12.60;63.30;;;;;;5025359;28;20455;-69
2022/04/23 03:30:06;;;;;;;;;;;12.60;63.40;;;;;;5019933;28;19929;-69
2022/04/23 03:32:34;;;;;;;;;;;12.60;63.50;;;;;;5019501;28;20336;-69
2022/04/23 03:35:00;;;;;;;;;;;12.50;63.60;;;;;;5024860;28;20082;-70
2022/04/23 03:37:28;;;;;;;;;;;12.50;63.70;;;;;;5025478;28;19933;-70
2022/04/23 03:39:55;;;;;;;;;;;12.40;63.20;;;;;;5026909;28;20684;-68
2022/04/23 03:42:21;;;;;;;;;;;12.40;63.80;;;;;;5027031;28;19959;-69
2022/04/23 03:44:48;;;;;;;;;;;12.40;64.00;;;;;;5021901;28;19929;-70
2022/04/23 03:47:15;;;;;;;;;;;12.40;64.00;;;;;;5025227;28;20685;-69
2022/04/23 03:49:42;;;;;;;;;;;12.40;64.10;;;;;;5024314;28;19933;-69
2022/04/23 03:52:10;;;;;;;;;;;12.30;64.20;;;;;;5018283;28;19925;-70
2022/04/23 03:54:38;;;;;;;;;;;12.30;64.30;;;;;;5023678;28;19933;-70
2022/04/23 03:57:04;;;;;;;;;;;12.30;64.40;;;;;;5025610;28;19931;-70
2022/04/23 03:59:31;;;;;;;;;;;12.30;64.40;;;;;;5021545;28;19971;-70
2022/04/23 04:02:03;;;;;;;;;;;12.20;64.40;;;;;;5017884;28;19929;-69
2022/04/23 04:04:31;;;;;;;;;;;12.20;64.50;;;;;;5026693;28;19929;-69
2022/04/23 04:06:57;;;;;;;;;;;12.50;64.80;;;;;;5021548;28;19929;-68
2022/04/23 04:09:24;;;;;;;;;;;12.20;64.60;;;;;;5025286;28;19936;-69
2022/04/23 04:12:06;;;;;;;;;;;12.20;64.80;;;;;;5019968;28;19929;-69
2022/04/23 04:14:34;;;;;;;;;;;12.10;64.80;;;;;;5023097;28;19929;-68
2022/04/23 04:17:02;;;;;;;;;;;12.10;65.00;;;;;;5025110;28;20019;-69
2022/04/23 04:19:29;;;;;;;;;;;12.10;65.10;;;;;;5019468;28;20271;-70
2022/04/23 04:21:56;;;;;;;;;;;12.10;65.20;;;;;;5023470;28;20040;-70
2022/04/23 04:24:23;;;;;;;;;;;12.10;65.30;;;;;;5024630;28;19929;-69
2022/04/23 04:26:52;;;;;;;;;;;12.00;65.20;;;;;;5024581;28;19929;-68
2022/04/23 04:29:19;;;;;;;;;;;12.00;65.40;;;;;;5021833;28;19936;-70
2022/04/23 04:31:48;;;;;;;;;;;12.00;65.40;;;;;;5022553;28;19929;-69
2022/04/23 04:34:15;;;;;;;;;;;12.00;65.60;;;;;;5025713;28;20046;-70
2022/04/23 04:36:42;;;;;;;;;;;11.90;65.60;;;;;;5026477;28;19936;-69
2022/04/23 04:39:08;;;;;;;;;;;11.90;65.80;;;;;;5022811;28;19925;-68
2022/04/23 04:41:35;;;;;;;;;;;11.90;65.90;;;;;;5024557;28;19929;-70
2022/04/23 04:44:03;;;;;;;;;;;11.90;66.00;;;;;;5023079;28;20032;-70
2022/04/23 04:46:30;;;;;;;;;;;11.90;66.20;;;;;;5021422;28;19983;-69
2022/04/23 04:48:56;;;;;;;;;;;11.80;66.10;;;;;;5025349;28;20435;-69
2022/04/23 04:51:23;;;;;;;;;;;11.80;66.30;;;;;;5024940;28;20394;-69
2022/04/23 04:53:51;;;;;;;;;;;11.80;66.40;;;;;;5021210;28;19936;-68
2022/04/23 04:56:18;;;;;;;;;;;11.80;66.40;;;;;;5023279;28;19929;-69
2022/04/23 04:58:45;;;;;;;;;;;11.80;66.40;;;;;;5023114;28;19951;-68
2022/04/23 05:01:13;;;;;;;;;;;11.80;66.60;;;;;;5019328;28;19929;-68
2022/04/23 05:03:40;;;;;;;;;;;11.70;66.60;;;;;;5023522;28;19929;-69
2022/04/23 05:06:06;;;;;;;;;;;11.70;66.60;;;;;;5023396;28;20008;-69
2022/04/23 05:08:34;;;;;;;;;;;11.70;66.80;;;;;;5019580;28;19933;-69
2022/04/23 05:11:00;;;;;;;;;;;11.70;66.70;;;;;;5024030;28;20047;-68
2022/04/23 05:13:27;;;;;;;;;;;11.70;66.80;;;;;;5020970;28;19940;-68
2022/04/23 05:15:53;;;;;;;;;;;11.70;67.60;;;;;;5019848;28;19933;-69
2022/04/23 05:18:21;;;;;;;;;;;11.70;66.90;;;;;;5023123;28;19929;-69
2022/04/23 05:20:48;;;;;;;;;;;11.60;66.90;;;;;;5022194;28;20372;-67
2022/04/23 05:23:15;;;;;;;;;;;11.60;67.00;;;;;;5022664;28;19990;-69
2022/04/23 05:25:41;;;;;;;;;;;11.60;67.00;;;;;;5029649;28;19936;-68
2022/04/23 05:28:08;;;;;;;;;;;11.70;67.30;;;;;;5028543;28;19933;-69
2022/04/23 05:30:37;;;;;;;;;;;11.60;67.40;;;;;;5018309;28;20019;-70
2022/04/23 05:33:03;;;;;;;;;;;11.60;67.50;;;;;;5022806;28;19994;-69
2022/04/23 05:35:31;;;;;;;;;;;11.60;67.60;;;;;;5023381;28;19929;-69
2022/04/23 05:37:58;;;;;;;;;;;11.50;67.60;;;;;;5026501;28;20006;-69
2022/04/23 05:40:24;;;;;;;;;;;11.50;67.60;;;;;;5022007;28;19936;-70
2022/04/23 05:42:55;;;;;;;;;;;11.50;67.70;;;;;;5024047;28;20735;-69
2022/04/23 05:45:22;;;;;;;;;;;11.50;67.90;;;;;;5017994;28;19929;-69
2022/04/23 05:47:49;;;;;;;;;;;11.50;68.00;;;;;;5024627;28;20004;-69
2022/04/23 05:50:15;;;;;;;;;;;11.50;68.00;;;;;;5021440;28;19929;-66
2022/04/23 05:52:43;;;;;;;;;;;11.50;68.10;;;;;;5016676;28;19929;-68
2022/04/23 05:55:10;;;;;;;;;;;11.50;68.20;;;;;;5022395;28;19929;-69
2022/04/23 05:57:37;;;;;;;;;;;11.50;68.20;;;;;;5022356;28;19999;-69
2022/04/23 06:00:04;;;;;;;;;;;11.50;68.50;;;;;;5019364;28;19952;-69
2022/04/23 06:02:31;;;;;;;;;;;11.50;68.50;;;;;;5024188;28;20058;-69
2022/04/23 06:04:58;;;;;;;;;;;11.50;68.60;;;;;;5020966;28;19929;-69
2022/04/23 06:07:24;;;;;;;;;;;11.50;68.70;;;;;;5022859;28;20637;-68
2022/04/23 06:09:52;;;;;;;;;;;11.40;68.80;;;;;;5018288;28;20413;-69
2022/04/23 06:12:19;;;;;;;;;;;11.50;68.90;;;;;;5017944;28;20692;-69
2022/04/23 06:14:46;;;;;;;;;;;11.50;68.90;;;;;;5020374;28;20737;-68
2022/04/23 06:17:13;;;;;;;;;;;11.40;68.80;;;;;;5021371;28;19987;-70
2022/04/23 06:19:39;;;;;;;;;;;11.40;68.90;;;;;;5022869;28;19936;-69
2022/04/23 06:22:06;;;;;;;;;;;11.40;69.10;;;;;;5019962;28;19933;-69
2022/04/23 06:24:33;;;;;;;;;;;11.40;69.00;;;;;;5021621;28;20313;-69
2022/04/23 06:27:00;;;;;;;;;;;11.40;69.10;;;;;;5024325;28;19928;-70
2022/04/23 06:29:27;;;;;;;;;;;11.40;69.20;;;;;;5024051;28;19933;-68
2022/04/23 06:31:54;;;;;;;;;;;11.40;69.10;;;;;;5022278;28;19936;-70
2022/04/23 06:34:21;;;;;;;;;;;11.40;69.30;;;;;;5022226;28;19936;-69
2022/04/23 06:36:47;;;;;;;;;;;11.40;69.30;;;;;;5028624;28;20023;-69
2022/04/23 06:39:14;;;;;;;;;;;11.50;69.50;;;;;;5025347;28;19929;-70
2022/04/23 06:41:40;;;;;;;;;;;11.40;69.60;;;;;;5021255;28;19929;-69
2022/04/23 06:44:08;;;;;;;;;;;11.40;69.70;;;;;;5021084;28;19933;-69
2022/04/23 06:46:35;;;;;;;;;;;11.40;69.90;;;;;;5022557;28;19928;-69
2022/04/23 06:49:05;;;;;;;;;;;11.40;69.80;;;;;;5032114;28;19933;-70
2022/04/23 06:51:32;;;;;;;;;;;11.40;69.70;;;;;;5022047;28;20421;-69
2022/04/23 06:53:58;;;;;;;;;;;11.50;69.80;;;;;;5018001;28;19940;-69
2022/04/23 06:56:26;;;;;;;;;;;11.40;70.00;;;;;;5023145;28;19929;-68
2022/04/23 06:58:52;;;;;;;;;;;11.50;70.00;;;;;;5015371;28;19944;-70
2022/04/23 07:01:20;;;;;;;;;;;11.50;70.10;;;;;;5018392;28;19971;-69
2022/04/23 07:03:47;;;;;;;;;;;11.50;70.20;;;;;;5027737;28;19929;-69
2022/04/23 07:06:15;;;;;;;;;;;11.50;70.20;;;;;;5024578;28;19928;-70
2022/04/23 07:08:43;;;;;;;;;;;11.50;70.20;;;;;;5019761;28;19940;-69
2022/04/23 07:11:09;;;;;;;;;;;11.50;70.10;;;;;;5022297;28;20027;-68
2022/04/23 07:13:36;;;;;;;;;;;11.50;70.10;;;;;;5021333;28;19929;-70
2022/04/23 07:16:03;;;;;;;;;;;11.50;70.00;;;;;;5023714;28;20317;-69
2022/04/23 07:18:32;;;;;;;;;;;11.50;70.10;;;;;;5025023;28;19929;-68
2022/04/23 07:20:58;;;;;;;;;;;11.50;70.20;;;;;;5027386;28;19929;-69
2022/04/23 07:26:11;;;;;;;;;;;11.60;70.60;;;;;;5025379;28;20695;-68
2022/04/23 07:28:38;;;;;;;;;;;11.60;70.60;;;;;;5028533;28;19941;-70
2022/04/23 07:31:05;;;;;;;;;;;11.60;70.70;;;;;;5024151;28;20024;-69
2022/04/23 07:39:01;;;;;;;;;;;11.60;70.80;;;;;;5026114;28;20305;-68
2022/04/23 07:41:28;;;;;;;;;;;11.60;70.60;;;;;;5027037;28;20343;-69
2022/04/23 07:43:54;;;;;;;;;;;11.70;70.60;;;;;;5024959;28;20857;-69
2022/04/23 07:46:21;;;;;;;;;;;11.70;70.60;;;;;;5023996;28;19952;-70
2022/04/23 07:48:50;;;;;;;;;;;11.70;70.70;;;;;;5027076;28;19987;-68
2022/04/23 07:51:17;;;;;;;;;;;11.80;70.80;;;;;;5021369;28;19929;-68
2022/04/23 07:53:43;;;;;;;;;;;11.70;70.80;;;;;;5014380;28;19940;-69
2022/04/23 07:56:10;;;;;;;;;;;11.80;70.80;;;;;;5022211;28;19984;-69
2022/04/23 07:58:36;;;;;;;;;;;11.80;70.80;;;;;;5021578;28;20310;-69
2022/04/23 08:01:03;;;;;;;;;;;11.80;70.80;;;;;;5018141;28;19929;-69
2022/04/23 08:03:30;;;;;;;;;;;11.90;70.80;;;;;;5022822;28;20024;-69
2022/04/23 08:05:58;;;;;;;;;;;11.90;70.80;;;;;;5025797;28;19935;-69
2022/04/23 08:08:24;;;;;;;;;;;11.90;70.80;;;;;;5021525;28;20476;-69
2022/04/23 08:10:51;;;;;;;;;;;11.90;70.80;;;;;;5029407;28;19932;-68
2022/04/23 08:13:18;;;;;;;;;;;12.00;70.90;;;;;;5019472;28;19933;-70
2022/04/23 08:15:44;;;;;;;;;;;12.00;70.80;;;;;;5017809;28;20004;-69
2022/04/23 08:18:11;;;;;;;;;;;12.00;70.80;;;;;;5022573;28;19932;-70
2022/04/23 08:20:38;;;;;;;;;;;12.00;70.80;;;;;;5019313;28;19999;-69
2022/04/23 08:23:06;;;;;;;;;;;12.10;70.70;;;;;;5025057;28;20645;-69
2022/04/23 08:25:33;;;;;;;;;;;12.10;70.60;;;;;;5028057;28;19924;-68
2022/04/23 08:30:34;;;;;;;;;;;12.10;70.50;;;;;;5028724;28;19925;-70
2022/04/23 08:30:45;;;;;;;;;;;12.20;70.50;;;;;;5026176;28;20737;-68
2022/04/23 08:33:12;;;;;;;;;;;12.10;70.40;;;;;;5031015;28;19973;-70
2022/04/23 08:35:39;;;;;;;;;;;12.20;70.60;;;;;;5031754;28;19965;-68
2022/04/23 08:38:08;;;;;;;;;;;12.30;70.60;;;;;;5025849;28;21067;-70
2022/04/23 08:40:36;;;;;;;;;;;12.30;70.50;;;;;;5027363;28;19951;-69
2022/04/23 08:43:03;;;;;;;;;;;12.30;70.30;;;;;;5026656;28;20558;-69
2022/04/23 08:45:31;;;;;;;;;;;12.40;70.40;;;;;;5025190;28;19933;-69
2022/04/23 08:47:59;;;;;;;;;;;12.40;70.40;;;;;;5025567;28;19936;-69
2022/04/23 08:50:26;;;;;;;;;;;12.40;70.40;;;;;;5022769;28;19936;-69
2022/04/23 08:52:54;;;;;;;;;;;12.40;70.40;;;;;;5022066;28;20019;-68
2022/04/23 08:55:22;;;;;;;;;;;12.50;70.40;;;;;;5022624;28;19935;-69
2022/04/23 08:57:48;;;;;;;;;;;12.50;70.30;;;;;;5022130;28;19933;-69
2022/04/23 09:00:16;;;;;;;;;;;12.60;70.30;;;;;;5015586;28;20790;-69
2022/04/23 09:02:42;;;;;;;;;;;12.60;70.10;;;;;;5026050;28;19929;-70
2022/04/23 09:05:12;;;;;;;;;;;12.60;70.00;;;;;;5021100;28;19968;-69
2022/04/23 09:07:39;;;;;;;;;;;12.70;70.00;;;;;;5023550;28;19998;-69
2022/04/23 09:10:06;;;;;;;;;;;12.70;69.90;;;;;;5021309;28;19933;-70
2022/04/23 09:12:34;;;;;;;;;;;12.70;69.70;;;;;;5018304;28;20015;-69
2022/04/23 09:23:39;;;;;;;;;;;12.70;69.60;;;;;;5016175;28;19982;-70
2022/04/23 09:23:43;;;;;;;;;;;12.90;69.50;;;;;;5021664;28;20416;-70
2022/04/23 09:26:16;;;;;;;;;;;12.90;69.30;;;;;;5017421;28;19929;-70
2022/04/23 09:28:47;;;;;;;;;;;13.00;69.30;;;;;;5022831;28;19945;-70
2022/04/23 09:31:15;;;;;;;;;;;13.00;69.30;;;;;;5020640;28;19933;-71
2022/04/23 09:33:45;;;;;;;;;;;13.00;69.10;;;;;;5023036;28;20032;-70
2022/04/23 09:36:12;;;;;;;;;;;13.10;69.00;;;;;;5023022;28;19933;-71
2022/04/23 09:38:40;;;;;;;;;;;13.10;68.70;;;;;;5024376;28;20016;-70
2022/04/23 09:41:16;;;;;;;;;;;13.20;68.70;;;;;;5015782;28;19933;-71
2022/04/23 09:43:43;;;;;;;;;;;13.20;68.60;;;;;;5023927;28;20003;-70
2022/04/23 09:46:11;;;;;;;;;;;13.30;68.40;;;;;;5023679;28;19925;-70
2022/04/23 09:48:39;;;;;;;;;;;13.30;68.40;;;;;;5021596;28;19931;-70
2022/04/23 09:51:05;;;;;;;;;;;13.30;68.50;;;;;;5021787;28;19929;-70
2022/04/23 09:53:32;;;;;;;;;;;13.40;68.50;;;;;;5016587;28;19932;-70
2022/04/23 09:56:00;;;;;;;;;;;13.40;68.20;;;;;;5022505;28;20003;-70
2022/04/23 09:58:28;;;;;;;;;;;13.50;68.10;;;;;;5022377;28;19936;-69
2022/04/23 10:00:56;;;;;;;;;;;13.40;67.90;;;;;;5016739;28;19937;-70
2022/04/23 10:03:27;;;;;;;;;;;13.60;67.80;;;;;;5026350;28;19936;-70
2022/04/23 10:05:54;;;;;;;;;;;13.50;67.60;;;;;;5028603;28;20007;-70
2022/04/23 10:08:23;;;;;;;;;;;13.50;67.80;;;;;;5027622;28;19933;-70
2022/04/23 10:10:53;;;;;;;;;;;13.60;67.60;;;;;;5022851;28;19962;-70
2022/04/23 10:13:21;;;;;;;;;;;13.70;67.70;;;;;;5022698;28;19929;-70
2022/04/23 10:15:48;;;;;;;;;;;13.70;67.60;;;;;;5022009;28;19971;-69
2022/04/23 10:18:15;;;;;;;;;;;13.70;67.50;;;;;;5024391;28;20032;-69
2022/04/23 10:20:53;;;;;;;;;;;13.70;67.40;;;;;;5023125;28;19937;-69
2022/04/23 10:23:24;;;;;;;;;;;13.70;67.30;;;;;;5021100;28;19995;-69
2022/04/23 10:25:51;;;;;;;;;;;13.70;67.20;;;;;;5024034;28;19980;-70
2022/04/23 10:28:19;;;;;;;;;;;13.80;67.10;;;;;;5022774;28;19944;-71
2022/04/23 10:30:47;;;;;;;;;;;13.80;67.00;;;;;;5019317;28;19989;-70
2022/04/23 10:33:23;;;;;;;;;;;13.90;66.90;;;;;;5024050;28;20021;-71
2022/04/23 10:36:03;;;;;;;;;;;13.90;66.80;;;;;;5022161;28;19936;-70
2022/04/23 10:38:30;;;;;;;;;;;14.00;66.70;;;;;;5019117;28;19936;-70
2022/04/23 10:40:56;;;;;;;;;;;14.00;66.50;;;;;;5021058;28;19936;-70
2022/04/23 10:43:23;;;;;;;;;;;14.00;66.20;;;;;;5021777;28;19987;-71
2022/04/23 10:45:49;;;;;;;;;;;14.00;66.10;;;;;;5017498;28;19929;-70
2022/04/23 10:48:26;;;;;;;;;;;14.10;66.00;;;;;;5022603;28;20294;-68
2022/04/23 10:50:58;;;;;;;;;;;14.10;66.00;;;;;;5022563;28;20059;-70
2022/04/23 10:53:29;;;;;;;;;;;14.20;65.90;;;;;;5018173;28;19932;-69
2022/04/23 10:56:16;;;;;;;;;;;14.20;65.70;;;;;;5012464;28;20032;-68
2022/04/23 10:58:43;;;;;;;;;;;14.20;65.70;;;;;;5018328;28;20007;-69
2022/04/23 11:01:20;;;;;;;;;;;14.30;65.50;;;;;;5019522;28;20645;-69
2022/04/23 11:03:50;;;;;;;;;;;14.30;65.30;;;;;;5025163;28;19929;-70
2022/04/23 11:12:17;;;;;;;;;;;14.40;64.70;;;;;;4993339;28;19983;-69
2022/04/23 11:14:45;;;;;;;;;;;14.40;64.80;;;;;;5023292;28;19991;-70
2022/04/23 11:17:12;;;;;;;;;;;14.50;64.70;;;;;;5022842;28;19936;-70
2022/04/23 11:19:39;;;;;;;;;;;14.40;64.50;;;;;;5031016;28;19929;-71
2022/04/23 11:22:06;;;;;;;;;;;14.50;64.90;;;;;;5022414;28;19936;-71
2022/04/23 11:24:34;;;;;;;;;;;14.50;64.80;;;;;;5022981;28;19933;-70
2022/04/23 11:27:00;;;;;;;;;;;14.50;64.60;;;;;;5025449;28;19929;-70
2022/04/23 11:29:28;;;;;;;;;;;14.60;64.20;;;;;;5025682;28;20303;-67
2022/04/23 11:31:56;;;;;;;;;;;14.60;64.00;;;;;;5020722;28;20550;-71
2022/04/23 11:34:23;;;;;;;;;;;14.60;63.80;;;;;;5028033;28;20445;-70
2022/04/23 11:36:50;;;;;;;;;;;14.60;63.70;;;;;;5030855;28;19933;-70
2022/04/23 11:39:16;;;;;;;;;;;14.60;64.00;;;;;;5023294;28;20681;-71
2022/04/23 11:41:44;;;;;;;;;;;14.60;64.00;;;;;;5031358;28;19936;-68
2022/04/23 11:44:12;;;;;;;;;;;14.60;63.80;;;;;;5022343;28;19937;-69
2022/04/23 11:46:44;;;;;;;;;;;14.70;63.50;;;;;;5021277;28;19929;-70
2022/04/23 11:49:11;;;;;;;;;;;14.70;63.40;;;;;;5024047;28;19929;-70
2022/04/23 11:51:40;;;;;;;;;;;14.70;63.30;;;;;;5020244;28;19987;-70
2022/04/23 11:54:07;;;;;;;;;;;14.70;63.30;;;;;;5019577;28;19925;-69
2022/04/23 11:56:36;;;;;;;;;;;14.70;63.30;;;;;;5017186;28;19932;-70
2022/04/23 11:59:04;;;;;;;;;;;14.80;63.30;;;;;;5022165;28;19980;-69
2022/04/23 12:01:31;;;;;;;;;;;14.80;63.20;;;;;;5027144;28;19929;-70
2022/04/23 12:03:59;;;;;;;;;;;14.80;63.10;;;;;;5027895;28;20378;-70
2022/04/23 12:06:26;;;;;;;;;;;14.80;63.10;;;;;;5028260;28;20643;-70
2022/04/23 12:09:04;;;;;;;;;;;14.80;62.90;;;;;;5023502;28;20542;-70
2022/04/23 12:11:30;;;;;;;;;;;14.90;63.00;;;;;;5019111;28;20473;-70
2022/04/23 12:13:57;;;;;;;;;;;14.90;62.80;;;;;;5023076;28;19933;-70
2022/04/23 12:16:33;;;;;;;;;;;14.90;62.80;;;;;;5022302;28;19934;-70
2022/04/23 12:19:02;;;;;;;;;;;14.90;62.50;;;;;;5024975;28;20015;-69
2022/04/23 12:21:28;;;;;;;;;;;14.90;62.40;;;;;;5024265;28;19928;-70
2022/04/23 12:23:55;;;;;;;;;;;15.00;62.30;;;;;;5024156;28;19933;-70
2022/04/23 12:26:23;;;;;;;;;;;15.00;62.30;;;;;;5025596;28;19929;-70
2022/04/23 12:42:52;;;;;;;;;;;15.20;62.00;;;;;;5025389;28;19935;-70
2022/04/23 12:45:19;;;;;;;;;;;15.20;61.80;;;;;;5021321;28;19933;-71
2022/04/23 12:47:46;;;;;;;;;;;15.20;61.60;;;;;;5022982;28;20043;-69
2022/04/23 12:50:25;;;;;;;;;;;15.30;61.60;;;;;;5023045;28;19929;-71
2022/04/23 12:52:52;;;;;;;;;;;15.30;61.40;;;;;;5020716;28;20424;-70
2022/04/23 12:55:19;;;;;;;;;;;15.40;61.30;;;;;;5015037;28;19936;-71
2022/04/23 12:57:46;;;;;;;;;;;15.50;61.30;;;;;;5020780;28;20634;-70
2022/04/23 13:00:16;;;;;;;;;;;15.50;61.00;;;;;;5021384;28;20356;-70
2022/04/23 13:02:43;;;;;;;;;;;15.50;60.90;;;;;;5022273;28;20036;-70
2022/04/23 13:05:11;;;;;;;;;;;15.60;60.90;;;;;;5024124;28;19941;-70
2022/04/23 13:10:22;;;;;;;;;;;15.60;60.70;;;;;;5024929;28;19936;-70
2022/04/23 13:12:49;;;;;;;;;;;15.70;60.80;;;;;;5022628;28;20027;-68
2022/04/23 13:15:16;;;;;;;;;;;15.70;60.50;;;;;;5020986;28;19939;-70
2022/04/23 13:17:43;;;;;;;;;;;15.80;60.50;;;;;;5024163;28;20052;-70
2022/04/23 13:20:11;;;;;;;;;;;15.80;60.20;;;;;;5021992;28;19929;-71
2022/04/23 13:22:41;;;;;;;;;;;15.90;60.40;;;;;;5019250;28;20412;-71
2022/04/23 13:25:08;;;;;;;;;;;15.90;60.30;;;;;;5027126;28;20593;-70
2022/04/23 13:27:35;;;;;;;;;;;15.90;60.10;;;;;;5025708;28;19936;-71
2022/04/23 13:30:01;;;;;;;;;;;16.00;60.00;;;;;;5022134;28;20320;-70
2022/04/23 13:32:28;;;;;;;;;;;16.00;59.90;;;;;;5025681;28;19933;-69
2022/04/23 13:34:54;;;;;;;;;;;16.00;59.80;;;;;;5026533;28;19929;-70
2022/04/23 13:37:21;;;;;;;;;;;16.10;59.70;;;;;;5023133;28;19929;-69
2022/04/23 13:39:49;;;;;;;;;;;16.10;59.60;;;;;;5021675;28;20407;-70
2022/04/23 13:42:17;;;;;;;;;;;16.10;59.60;;;;;;5019643;28;19937;-69
2022/04/23 13:44:44;;;;;;;;;;;16.10;59.50;;;;;;5020903;28;19941;-67
2022/04/23 13:47:11;;;;;;;;;;;16.20;59.50;;;;;;5016958;28;20356;-70
2022/04/23 13:49:37;;;;;;;;;;;16.20;59.30;;;;;;5023978;28;19929;-70
2022/04/23 13:52:04;;;;;;;;;;;16.20;59.30;;;;;;5019815;28;19935;-71
2022/04/23 13:54:31;;;;;;;;;;;16.30;59.50;;;;;;5019842;28;20305;-71
2022/04/23 13:57:00;;;;;;;;;;;16.20;59.20;;;;;;5023390;28;19932;-69
2022/04/23 13:59:26;;;;;;;;;;;16.30;59.40;;;;;;5020436;28;19933;-70
2022/04/23 14:10:05;;;;;;;;;;;16.40;59.10;;;;;;5017011;28;19968;-70
2022/04/23 14:12:33;;;;;;;;;;;16.40;59.10;;;;;;5018042;28;19976;-70
2022/04/23 14:14:59;;;;;;;;;;;16.50;59.00;;;;;;5017069;28;19944;-70
2022/04/23 14:17:27;;;;;;;;;;;16.50;58.90;;;;;;5022393;28;19959;-71
2022/04/23 14:19:53;;;;;;;;;;;16.50;58.80;;;;;;5022064;28;20019;-70
2022/04/23 14:22:20;;;;;;;;;;;16.50;58.80;;;;;;5018554;28;19936;-71
2022/04/23 14:24:46;;;;;;;;;;;16.50;58.90;;;;;;5021422;28;19929;-70
2022/04/23 14:27:13;;;;;;;;;;;16.50;58.80;;;;;;5015934;28;19937;-70
2022/04/23 14:29:41;;;;;;;;;;;16.50;58.60;;;;;;5020022;28;19932;-69
2022/04/23 14:32:08;;;;;;;;;;;16.50;58.70;;;;;;5023459;28;20290;-70
2022/04/23 14:34:34;;;;;;;;;;;16.50;58.80;;;;;;5024411;28;19997;-71
2022/04/23 14:37:01;;;;;;;;;;;16.50;58.60;;;;;;5022659;28;19987;-70
2022/04/23 14:39:28;;;;;;;;;;;16.50;58.30;;;;;;4990294;28;788354;-70
2022/04/23 14:41:54;;;;;;;;;;;16.50;58.30;;;;;;5022622;28;19976;-70
2022/04/23 14:44:21;;;;;;;;;;;16.50;58.30;;;;;;5022737;28;19925;-71
2022/04/23 14:46:49;;;;;;;;;;;16.60;58.30;;;;;;5023383;28;19932;-68
2022/04/23 14:49:16;;;;;;;;;;;16.60;58.30;;;;;;5023935;28;20031;-71
2022/04/23 14:54:26;;;;;;;;;;;16.60;58.30;;;;;;5017549;28;19928;-70
2022/04/23 14:56:53;;;;;;;;;;;16.60;58.30;;;;;;5021667;28;20452;-70
2022/04/23 14:59:21;;;;;;;;;;;16.60;58.30;;;;;;5021061;28;19990;-67
2022/04/23 15:01:49;;;;;;;;;;;16.60;58.40;;;;;;5019721;28;20006;-69
2022/04/23 15:04:16;;;;;;;;;;;16.60;58.30;;;;;;5021648;28;19971;-70
2022/04/23 15:06:43;;;;;;;;;;;16.60;58.30;;;;;;5019802;28;19933;-70